Time;durP1;ratioP1;P1;durP2;ratioP2;P2;SDS_P1;SDS_P2;PMS_P1;PMS_P2;Temp;Humidity;BMP_temperature;BMP_pressure;BME280_temperature;BME280_humidity;BME280_pressure;Samples;Min_cycle;Max_cycle;Signal;HPM_P1;HPM_P2
2024/03/19 00:00:48;;;;;;;4.20;2.67;;;10.80;76.00;;;;;;5074850;28;20566;-64
2024/03/19 00:03:14;;;;;;;5.05;2.83;;;10.80;76.00;;;;;;5080658;28;20020;-64
2024/03/19 00:05:41;;;;;;;4.20;2.25;;;10.80;76.00;;;;;;5082533;28;20043;-64
2024/03/19 00:08:07;;;;;;;4.65;2.85;;;10.80;76.00;;;;;;5080235;28;20021;-65
2024/03/19 00:10:33;;;;;;;5.13;2.60;;;10.80;76.10;;;;;;5080643;28;20028;-64
2024/03/19 00:12:59;;;;;;;6.07;3.25;;;10.80;76.10;;;;;;5084110;28;20551;-64
2024/03/19 00:15:25;;;;;;;6.75;2.63;;;10.80;76.10;;;;;;5086064;28;20040;-65
2024/03/19 00:17:52;;;;;;;4.28;2.15;;;10.80;76.10;;;;;;5075733;28;20025;-65
2024/03/19 00:20:21;;;;;;;7.40;3.80;;;10.80;76.10;;;;;;5084035;28;20052;-65
2024/03/19 00:22:47;;;;;;;10.40;3.47;;;10.80;76.20;;;;;;5079140;28;20035;-65
2024/03/19 00:25:14;;;;;;;4.78;3.05;;;10.80;76.30;;;;;;5083990;28;20035;-65
2024/03/19 00:27:40;;;;;;;5.28;2.58;;;10.80;76.40;;;;;;5086920;28;20025;-65
2024/03/19 00:30:10;;;;;;;5.43;2.67;;;10.80;76.40;;;;;;5078975;28;20028;-65
2024/03/19 00:32:39;;;;;;;6.90;2.70;;;10.80;76.50;;;;;;5083398;28;20047;-65
2024/03/19 00:35:09;;;;;;;7.28;3.58;;;10.80;76.60;;;;;;5073896;28;20035;-65
2024/03/19 00:37:39;;;;;;;7.78;3.90;;;10.80;76.70;;;;;;5080041;28;20529;-65
2024/03/19 00:40:12;;;;;;;8.15;3.25;;;10.80;76.70;;;;;;5088636;28;20041;-65
2024/03/19 00:42:41;;;;;;;9.27;3.60;;;10.70;76.80;;;;;;5088934;28;20024;-65
2024/03/19 00:45:08;;;;;;;9.65;4.00;;;10.80;76.80;;;;;;5090496;28;20372;-64
2024/03/19 00:47:34;;;;;;;5.85;3.13;;;10.80;76.90;;;;;;5087783;28;20039;-64
2024/03/19 00:50:01;;;;;;;7.50;3.58;;;10.80;76.90;;;;;;5073788;28;20028;-64
2024/03/19 00:52:27;;;;;;;8.60;2.88;;;10.80;76.80;;;;;;5081572;28;20025;-64
2024/03/19 00:54:53;;;;;;;9.15;4.10;;;10.80;76.80;;;;;;5086691;28;20363;-64
2024/03/19 00:57:21;;;;;;;8.50;3.75;;;10.80;76.90;;;;;;5081273;28;20052;-63
2024/03/19 00:59:47;;;;;;;5.30;2.95;;;10.90;77.00;;;;;;5088011;28;20112;-64
2024/03/19 01:02:13;;;;;;;7.18;3.63;;;10.90;77.00;;;;;;5086131;28;20451;-65
2024/03/19 01:04:39;;;;;;;9.57;4.00;;;10.90;77.10;;;;;;5087297;28;20107;-64
2024/03/19 01:07:06;;;;;;;8.25;3.20;;;10.90;77.10;;;;;;5084011;28;20028;-64
2024/03/19 01:09:32;;;;;;;7.30;3.33;;;10.90;77.10;;;;;;5082541;28;20016;-64
2024/03/19 01:11:58;;;;;;;5.90;2.88;;;10.90;77.20;;;;;;5086509;28;20016;-64
2024/03/19 01:14:24;;;;;;;6.15;3.75;;;10.90;77.30;;;;;;5084095;28;20390;-64
2024/03/19 01:16:50;;;;;;;7.07;3.03;;;10.90;77.50;;;;;;5084635;28;20339;-64
2024/03/19 01:19:16;;;;;;;6.55;3.38;;;10.90;77.60;;;;;;5085781;28;20043;-64
2024/03/19 01:21:42;;;;;;;10.20;3.65;;;10.90;77.80;;;;;;5088406;28;20048;-64
2024/03/19 01:24:08;;;;;;;9.07;4.35;;;10.90;78.00;;;;;;5088016;28;20037;-64
2024/03/19 01:26:34;;;;;;;5.40;3.47;;;10.90;78.10;;;;;;5083815;28;20028;-64
2024/03/19 01:29:00;;;;;;;12.35;4.45;;;11.00;78.30;;;;;;5080871;28;20048;-64
2024/03/19 01:31:28;;;;;;;7.63;4.30;;;11.00;78.30;;;;;;5089100;28;20054;-64
2024/03/19 01:33:57;;;;;;;9.35;4.07;;;11.00;78.20;;;;;;5084882;28;20032;-64
2024/03/19 01:36:24;;;;;;;6.57;3.50;;;11.10;78.30;;;;;;5085791;28;20024;-65
2024/03/19 01:38:50;;;;;;;7.03;2.92;;;11.10;78.30;;;;;;5086213;28;20035;-65
2024/03/19 01:41:16;;;;;;;6.28;3.35;;;11.10;78.30;;;;;;5080456;28;20040;-65
2024/03/19 01:43:46;;;;;;;9.63;3.42;;;11.10;78.30;;;;;;5089895;28;20032;-65
2024/03/19 01:46:17;;;;;;;10.15;3.97;;;11.20;78.40;;;;;;5083553;28;20024;-65
2024/03/19 01:48:43;;;;;;;5.80;3.05;;;11.20;78.40;;;;;;5090167;28;20071;-65
2024/03/19 01:51:10;;;;;;;6.05;3.15;;;11.10;78.40;;;;;;5076983;28;20813;-65
2024/03/19 01:53:36;;;;;;;10.02;3.65;;;11.20;78.50;;;;;;5081867;28;20040;-65
2024/03/19 01:56:02;;;;;;;8.32;4.75;;;11.10;78.60;;;;;;5080074;28;20028;-65
2024/03/19 01:58:30;;;;;;;7.85;3.55;;;11.20;78.70;;;;;;5090192;28;20039;-64
2024/03/19 02:00:56;;;;;;;8.20;3.65;;;11.20;78.80;;;;;;5076109;28;20509;-64
2024/03/19 02:03:22;;;;;;;9.48;3.30;;;11.20;78.90;;;;;;5068749;28;20032;-64
2024/03/19 02:05:49;;;;;;;5.47;3.05;;;11.20;79.00;;;;;;5089466;28;20032;-64
2024/03/19 02:08:15;;;;;;;5.85;3.90;;;11.20;79.00;;;;;;5089998;28;20028;-64
2024/03/19 02:10:47;;;;;;;8.40;4.20;;;11.20;79.10;;;;;;5088261;28;20036;-64
2024/03/19 02:13:17;;;;;;;6.93;3.47;;;11.20;79.10;;;;;;5078909;28;20036;-64
2024/03/19 02:15:43;;;;;;;9.63;3.33;;;11.20;79.20;;;;;;5082020;28;20394;-64
2024/03/19 02:18:09;;;;;;;5.55;2.95;;;11.20;79.30;;;;;;5089899;28;20214;-64
2024/03/19 02:20:35;;;;;;;10.95;4.13;;;11.20;79.30;;;;;;5085274;28;20044;-64
2024/03/19 02:23:02;;;;;;;7.00;3.45;;;11.20;79.40;;;;;;5087620;28;20382;-64
2024/03/19 02:25:28;;;;;;;7.43;3.58;;;11.20;79.40;;;;;;5088157;28;20423;-64
2024/03/19 02:27:55;;;;;;;7.72;3.78;;;11.20;79.50;;;;;;5085229;28;20055;-64
2024/03/19 02:30:21;;;;;;;6.40;2.95;;;11.20;79.50;;;;;;5087461;28;20472;-64
2024/03/19 02:32:46;;;;;;;8.50;3.33;;;11.20;79.50;;;;;;5061979;28;20067;-64
2024/03/19 02:35:12;;;;;;;6.40;3.60;;;11.30;79.50;;;;;;5086194;28;20054;-64
2024/03/19 02:37:38;;;;;;;5.78;2.58;;;11.30;79.50;;;;;;5089291;28;20056;-64
2024/03/19 02:40:05;;;;;;;5.00;3.42;;;11.30;79.60;;;;;;5088319;28;20032;-64
2024/03/19 02:42:34;;;;;;;5.85;3.00;;;11.30;79.50;;;;;;5087881;28;20032;-64
2024/03/19 02:45:00;;;;;;;9.45;3.30;;;11.30;79.50;;;;;;5075568;28;20028;-64
2024/03/19 02:47:26;;;;;;;5.43;2.70;;;11.30;79.50;;;;;;5084902;28;20028;-65
2024/03/19 02:49:52;;;;;;;6.57;3.17;;;11.40;79.60;;;;;;5077351;28;20028;-64
2024/03/19 02:52:18;;;;;;;7.38;3.42;;;11.40;79.60;;;;;;5082542;28;20020;-65
2024/03/19 02:54:45;;;;;;;7.53;3.03;;;11.40;79.60;;;;;;5082217;28;20356;-65
2024/03/19 02:57:10;;;;;;;6.40;3.67;;;11.40;79.60;;;;;;5085115;28;20070;-64
2024/03/19 02:59:37;;;;;;;7.47;3.05;;;11.40;79.60;;;;;;5087678;28;20028;-64
2024/03/19 03:02:03;;;;;;;5.55;2.85;;;11.40;79.70;;;;;;5086011;28;20162;-64
2024/03/19 03:04:29;;;;;;;6.50;2.88;;;11.40;79.70;;;;;;5085598;28;20429;-64
2024/03/19 03:06:55;;;;;;;4.63;2.65;;;11.50;79.80;;;;;;5088679;28;20050;-64
2024/03/19 03:09:22;;;;;;;5.85;3.65;;;11.50;79.80;;;;;;5083120;28;20035;-64
2024/03/19 03:11:48;;;;;;;7.72;3.13;;;11.50;79.80;;;;;;5083840;28;20031;-64
2024/03/19 03:14:14;;;;;;;5.57;2.67;;;11.60;80.40;;;;;;5085223;28;20028;-64
2024/03/19 03:16:39;;;;;;;7.38;2.38;;;11.60;79.80;;;;;;5083391;28;20032;-64
2024/03/19 03:19:05;;;;;;;5.45;2.22;;;11.60;79.80;;;;;;5083638;28;20032;-64
2024/03/19 03:21:31;;;;;;;7.10;2.78;;;11.60;79.90;;;;;;5086486;28;20047;-65
2024/03/19 03:23:59;;;;;;;7.85;2.85;;;11.60;79.90;;;;;;5085467;28;20028;-65
2024/03/19 03:26:25;;;;;;;7.43;2.47;;;11.60;80.00;;;;;;5087416;28;20115;-65
2024/03/19 03:28:51;;;;;;;4.32;2.05;;;11.60;80.10;;;;;;5085319;28;20128;-65
2024/03/19 03:31:17;;;;;;;5.78;2.45;;;11.60;80.10;;;;;;5082840;28;20032;-65
2024/03/19 03:33:43;;;;;;;3.85;2.88;;;11.60;80.10;;;;;;5079215;28;20360;-65
2024/03/19 03:36:09;;;;;;;8.35;2.95;;;11.60;80.20;;;;;;5080380;28;20039;-65
2024/03/19 03:38:35;;;;;;;5.57;3.10;;;11.60;80.20;;;;;;5081453;28;20033;-65
2024/03/19 03:41:07;;;;;;;4.22;2.42;;;11.60;80.30;;;;;;5079512;28;20477;-65
2024/03/19 03:43:33;;;;;;;;;;;11.60;80.40;;;;;;5082859;28;20415;-65
2024/03/19 03:45:59;;;;;;;9.18;3.08;;;11.60;80.40;;;;;;5081043;28;20329;-64
2024/03/19 03:48:25;;;;;;;7.20;2.53;;;11.60;80.40;;;;;;5088035;28;20078;-65
2024/03/19 03:50:51;;;;;;;8.40;2.72;;;11.60;80.50;;;;;;5076427;28;20035;-65
2024/03/19 03:53:17;;;;;;;5.82;2.63;;;11.60;80.60;;;;;;5087150;28;20510;-64
2024/03/19 03:55:42;;;;;;;4.78;2.45;;;11.60;80.60;;;;;;5076980;28;20036;-65
2024/03/19 03:58:08;;;;;;;5.78;3.08;;;11.60;80.70;;;;;;5083197;28;20051;-64
2024/03/19 04:00:35;;;;;;;6.25;2.38;;;11.70;80.70;;;;;;5087535;28;20040;-64
2024/03/19 04:03:01;;;;;;;7.68;3.08;;;11.70;80.60;;;;;;5082828;28;20036;-64
2024/03/19 04:05:27;;;;;;;6.32;3.15;;;11.70;80.50;;;;;;5083829;28;20266;-64
2024/03/19 04:07:52;;;;;;;3.75;2.20;;;11.80;80.50;;;;;;5088075;28;20588;-65
2024/03/19 04:10:18;;;;;;;4.63;2.25;;;11.80;80.50;;;;;;5082953;28;20377;-64
2024/03/19 04:12:45;;;;;;;5.07;2.53;;;11.80;80.50;;;;;;5087326;28;20028;-64
2024/03/19 04:15:11;;;;;;;6.43;3.25;;;11.80;80.60;;;;;;5084849;28;20040;-64
2024/03/19 04:17:38;;;;;;;5.32;2.92;;;11.80;80.60;;;;;;5091589;28;20468;-64
2024/03/19 04:20:06;;;;;;;5.25;2.40;;;11.80;80.60;;;;;;5088538;28;20032;-64
2024/03/19 04:22:34;;;;;;;4.38;2.35;;;11.80;80.60;;;;;;5083951;28;20484;-64
2024/03/19 04:25:00;;;;;;;5.15;2.72;;;11.80;80.60;;;;;;5084978;28;20024;-64
2024/03/19 04:27:26;;;;;;;8.23;3.33;;;11.80;80.70;;;;;;5086094;28;20234;-64
2024/03/19 04:29:52;;;;;;;8.30;3.17;;;11.90;80.70;;;;;;5086565;28;20420;-65
2024/03/19 04:32:18;;;;;;;8.02;3.20;;;11.90;80.70;;;;;;5090532;28;20039;-64
2024/03/19 04:34:44;;;;;;;5.85;2.80;;;11.90;80.70;;;;;;5081599;28;20040;-64
2024/03/19 04:37:10;;;;;;;8.30;3.53;;;11.90;80.80;;;;;;5087603;28;20102;-64
2024/03/19 04:39:36;;;;;;;8.55;3.20;;;12.00;80.80;;;;;;5076486;28;20458;-65
2024/03/19 04:42:02;;;;;;;7.82;3.17;;;12.00;80.80;;;;;;5076807;28;20151;-64
2024/03/19 04:44:31;;;;;;;6.53;3.17;;;12.00;80.80;;;;;;5083780;28;20033;-65
2024/03/19 04:47:00;;;;;;;4.65;2.83;;;11.90;80.80;;;;;;5087757;28;20439;-64
2024/03/19 04:49:26;;;;;;;5.82;2.78;;;11.90;80.90;;;;;;5080831;28;20051;-65
2024/03/19 04:51:51;;;;;;;5.28;2.63;;;12.00;80.90;;;;;;5082243;28;20040;-64
2024/03/19 04:54:17;;;;;;;6.00;2.97;;;12.00;81.00;;;;;;5080877;28;20085;-65
2024/03/19 04:56:43;;;;;;;9.20;3.92;;;11.90;81.00;;;;;;5078921;28;20032;-65
2024/03/19 04:59:09;;;;;;;6.13;2.92;;;11.90;81.00;;;;;;5089441;28;20893;-64
2024/03/19 05:01:35;;;;;;;7.47;2.42;;;11.90;81.10;;;;;;5083164;28;20040;-65
2024/03/19 05:04:01;;;;;;;6.78;2.60;;;11.90;81.10;;;;;;5080555;28;20047;-65
2024/03/19 05:06:27;;;;;;;7.25;3.40;;;12.00;81.10;;;;;;5087070;28;20040;-65
2024/03/19 05:08:53;;;;;;;4.95;2.80;;;12.00;81.10;;;;;;5083731;28;20579;-64
2024/03/19 05:11:19;;;;;;;4.55;3.05;;;12.00;81.10;;;;;;5085257;28;20364;-65
2024/03/19 05:13:45;;;;;;;5.20;3.00;;;12.00;81.00;;;;;;5084669;28;20056;-65
2024/03/19 05:16:11;;;;;;;4.30;2.70;;;11.90;81.10;;;;;;5083181;28;20126;-65
2024/03/19 05:18:37;;;;;;;6.50;4.00;;;11.90;81.10;;;;;;5090734;28;20032;-65
2024/03/19 05:21:03;;;;;;;6.97;2.40;;;11.90;81.10;;;;;;5088236;28;20056;-64
2024/03/19 05:23:29;;;;;;;5.20;3.10;;;12.00;81.10;;;;;;5090068;28;20036;-65
2024/03/19 05:25:56;;;;;;;9.30;3.28;;;11.90;81.10;;;;;;5085971;28;20033;-64
2024/03/19 05:28:22;;;;;;;7.75;3.42;;;11.90;81.20;;;;;;5081513;28;20020;-64
2024/03/19 05:30:48;;;;;;;7.70;3.72;;;11.90;81.20;;;;;;5086728;28;20060;-64
2024/03/19 05:33:14;;;;;;;9.85;3.58;;;11.90;81.30;;;;;;5083223;28;20513;-64
2024/03/19 05:35:41;;;;;;;5.72;2.10;;;11.90;81.40;;;;;;5087290;28;20486;-64
2024/03/19 05:38:08;;;;;;;7.40;3.25;;;11.90;81.40;;;;;;5088646;28;20032;-65
2024/03/19 05:40:35;;;;;;;5.07;2.38;;;11.90;81.50;;;;;;5082248;28;20123;-65
2024/03/19 05:43:02;;;;;;;6.18;3.13;;;11.90;81.50;;;;;;5083986;28;20101;-65
2024/03/19 05:45:30;;;;;;;5.03;2.40;;;11.90;81.60;;;;;;5086604;28;20039;-65
2024/03/19 05:47:57;;;;;;;7.45;4.15;;;11.90;81.60;;;;;;5084497;28;20028;-65
2024/03/19 05:50:23;;;;;;;6.05;3.08;;;11.90;81.60;;;;;;5089002;28;20501;-65
2024/03/19 05:52:49;;;;;;;6.88;2.92;;;11.90;81.60;;;;;;5089899;28;21135;-65
2024/03/19 05:55:15;;;;;;;6.85;3.65;;;11.90;81.60;;;;;;5084415;28;20040;-65
2024/03/19 05:57:40;;;;;;;10.85;4.07;;;11.90;81.50;;;;;;5082718;28;20058;-65
2024/03/19 06:00:10;;;;;;;6.05;3.80;;;11.90;81.40;;;;;;5089843;28;20024;-65
2024/03/19 06:02:36;;;;;;;4.70;2.15;;;11.90;81.40;;;;;;5086606;28;20089;-65
2024/03/19 06:05:01;;;;;;;6.68;3.55;;;12.00;81.60;;;;;;5086445;28;20434;-65
2024/03/19 06:07:27;;;;;;;8.75;4.53;;;12.00;81.50;;;;;;5085834;28;20028;-65
2024/03/19 06:09:52;;;;;;;9.05;3.55;;;12.00;81.60;;;;;;5085870;28;20028;-64
2024/03/19 06:12:18;;;;;;;6.82;3.53;;;11.90;81.60;;;;;;5088281;28;20020;-65
2024/03/19 06:14:44;;;;;;;5.80;3.50;;;12.00;81.70;;;;;;5088213;28;20445;-64
2024/03/19 06:17:10;;;;;;;7.00;3.53;;;12.00;81.70;;;;;;5083649;28;20483;-65
2024/03/19 06:19:36;;;;;;;6.90;3.40;;;12.00;81.70;;;;;;5085373;28;20029;-65
2024/03/19 06:22:01;;;;;;;8.15;3.10;;;12.00;81.80;;;;;;5081243;28;20062;-64
2024/03/19 06:24:27;;;;;;;7.03;3.08;;;12.00;81.90;;;;;;5081822;28;20039;-64
2024/03/19 06:26:53;;;;;;;7.15;4.55;;;12.00;81.90;;;;;;5083462;28;20036;-65
2024/03/19 06:29:19;;;;;;;5.40;3.10;;;12.10;82.00;;;;;;5078334;28;20031;-64
2024/03/19 06:31:45;;;;;;;7.75;3.88;;;12.10;81.90;;;;;;5070712;28;20024;-65
2024/03/19 06:34:10;;;;;;;8.50;3.63;;;12.20;81.90;;;;;;5083761;28;20143;-64
2024/03/19 06:36:36;;;;;;;5.20;2.83;;;12.20;81.80;;;;;;5088078;28;20036;-65
2024/03/19 06:39:03;;;;;;;6.78;3.40;;;12.20;81.70;;;;;;5082554;28;20067;-65
2024/03/19 06:41:31;;;;;;;8.70;3.17;;;12.30;81.70;;;;;;5081959;28;20032;-65
2024/03/19 06:43:57;;;;;;;5.45;3.42;;;12.30;81.80;;;;;;5082608;28;20471;-65
2024/03/19 06:46:23;;;;;;;7.28;3.28;;;12.30;81.80;;;;;;5085322;28;20020;-65
2024/03/19 06:48:49;;;;;;;6.57;3.10;;;12.40;81.80;;;;;;5086872;28;20486;-65
2024/03/19 06:51:15;;;;;;;5.70;2.95;;;12.40;81.80;;;;;;5087298;28;20047;-64
2024/03/19 06:53:40;;;;;;;7.32;4.15;;;12.40;81.80;;;;;;5084850;28;20113;-64
2024/03/19 06:56:08;;;;;;;4.75;2.88;;;12.40;81.80;;;;;;5081808;28;20074;-64
2024/03/19 06:58:34;;;;;;;7.15;3.08;;;12.50;81.80;;;;;;5086226;28;20024;-64
2024/03/19 07:00:59;;;;;;;6.40;3.35;;;12.50;81.80;;;;;;5088275;28;20039;-64
2024/03/19 07:03:25;;;;;;;32.13;3.92;;;12.50;81.70;;;;;;5088398;28;20517;-64
2024/03/19 07:05:50;;;;;;;7.93;3.53;;;12.50;81.70;;;;;;5086624;28;20047;-64
2024/03/19 07:08:16;;;;;;;4.35;3.13;;;12.50;81.80;;;;;;5080619;28;20028;-64
2024/03/19 07:10:42;;;;;;;9.88;4.10;;;12.50;81.80;;;;;;5082752;28;20541;-65
2024/03/19 07:13:08;;;;;;;5.43;2.83;;;12.50;81.80;;;;;;5085968;28;20032;-64
2024/03/19 07:15:34;;;;;;;6.35;3.40;;;12.60;81.90;;;;;;5079319;28;20032;-65
2024/03/19 07:18:01;;;;;;;6.72;3.40;;;12.60;81.90;;;;;;5085100;28;20528;-65
2024/03/19 07:20:31;;;;;;;6.35;3.53;;;12.60;81.80;;;;;;5088113;28;20476;-65
2024/03/19 07:22:58;;;;;;;7.25;3.65;;;12.60;81.80;;;;;;5082018;28;20051;-65
2024/03/19 07:25:24;;;;;;;5.80;2.80;;;12.70;81.80;;;;;;5086317;28;20062;-64
2024/03/19 07:27:50;;;;;;;7.55;3.40;;;12.70;81.80;;;;;;5068551;28;20077;-64
2024/03/19 07:30:17;;;;;;;9.25;4.00;;;12.70;81.80;;;;;;5080980;28;20025;-65
2024/03/19 07:32:44;;;;;;;5.55;3.25;;;12.70;81.80;;;;;;5084555;28;20059;-65
2024/03/19 07:35:10;;;;;;;5.15;2.50;;;12.70;82.40;;;;;;5075982;28;20024;-65
2024/03/19 07:37:39;;;;;;;7.75;3.47;;;12.80;81.80;;;;;;5082252;28;20090;-65
2024/03/19 07:40:09;;;;;;;9.90;3.33;;;12.80;81.80;;;;;;5082025;28;20298;-65
2024/03/19 07:42:37;;;;;;;7.65;3.40;;;12.80;81.80;;;;;;5080413;28;20036;-65
2024/03/19 07:45:04;;;;;;;8.13;4.07;;;12.90;81.90;;;;;;5086547;28;20040;-65
2024/03/19 07:47:30;;;;;;;8.55;4.55;;;12.90;81.80;;;;;;5080009;28;20024;-64
2024/03/19 07:49:55;;;;;;;7.10;3.65;;;12.90;81.80;;;;;;5078157;28;20024;-64
2024/03/19 07:52:21;;;;;;;6.75;3.47;;;13.00;82.40;;;;;;5084085;28;20028;-64
2024/03/19 07:54:47;;;;;;;6.32;3.13;;;13.00;81.80;;;;;;5089111;28;20039;-63
2024/03/19 07:57:12;;;;;;;6.32;3.67;;;13.00;81.80;;;;;;5073485;28;20032;-64
2024/03/19 07:59:38;;;;;;;8.23;4.28;;;13.10;81.80;;;;;;5080991;28;20035;-63
2024/03/19 08:02:04;;;;;;;5.57;3.35;;;13.10;81.90;;;;;;5080383;28;20058;-63
2024/03/19 08:04:31;;;;;;;6.13;3.08;;;13.10;82.40;;;;;;5087070;28;20032;-63
2024/03/19 08:06:56;;;;;;;7.95;3.47;;;13.10;81.70;;;;;;5081765;28;20027;-65
2024/03/19 08:09:22;;;;;;;8.02;4.22;;;13.20;81.70;;;;;;5087447;28;20366;-64
2024/03/19 08:11:48;;;;;;;5.07;2.53;;;13.20;81.70;;;;;;5075183;28;20483;-64
2024/03/19 08:14:14;;;;;;;11.45;3.67;;;13.30;81.60;;;;;;5080057;28;20043;-64
2024/03/19 08:16:40;;;;;;;9.07;4.50;;;13.30;81.60;;;;;;5087139;28;20065;-65
2024/03/19 08:19:08;;;;;;;5.63;3.33;;;13.40;81.60;;;;;;5081210;28;20498;-66
2024/03/19 08:21:35;;;;;;;7.80;3.83;;;13.50;81.60;;;;;;5085275;28;20084;-66
2024/03/19 08:24:01;;;;;;;6.47;3.95;;;13.50;81.50;;;;;;5085844;28;20081;-66
2024/03/19 08:26:27;;;;;;;7.07;3.85;;;13.60;81.40;;;;;;5086472;28;20036;-66
2024/03/19 08:28:53;;;;;;;6.00;3.50;;;13.60;81.30;;;;;;5086377;28;20470;-65
2024/03/19 08:31:18;;;;;;;6.93;3.13;;;13.70;81.30;;;;;;5080675;28;20035;-65
2024/03/19 08:33:44;;;;;;;5.80;3.17;;;13.80;81.20;;;;;;5086198;28;20028;-65
2024/03/19 08:36:10;;;;;;;6.95;3.40;;;13.80;81.00;;;;;;5060744;28;20107;-64
2024/03/19 08:38:37;;;;;;;7.07;2.70;;;13.90;81.00;;;;;;5084721;28;20384;-66
2024/03/19 08:41:06;;;;;;;10.45;4.53;;;14.00;81.50;;;;;;5073992;28;20028;-64
2024/03/19 08:43:32;;;;;;;8.50;3.67;;;14.00;80.80;;;;;;5082422;28;20572;-64
2024/03/19 08:45:57;;;;;;;7.97;3.15;;;14.00;80.70;;;;;;5082567;28;20028;-64
2024/03/19 08:48:23;;;;;;;6.85;2.95;;;14.10;80.70;;;;;;5086268;28;20020;-64
2024/03/19 08:50:49;;;;;;;6.15;3.05;;;14.20;80.70;;;;;;5086337;28;20082;-64
2024/03/19 08:53:15;;;;;;;5.63;2.95;;;14.30;80.40;;;;;;5085535;28;20104;-64
2024/03/19 08:55:42;;;;;;;5.57;2.95;;;14.40;80.20;;;;;;5081331;28;20488;-64
2024/03/19 08:58:08;;;;;;;6.63;3.00;;;14.50;80.10;;;;;;5075040;28;20051;-64
2024/03/19 09:00:34;;;;;;;5.72;2.67;;;14.50;80.10;;;;;;5076400;28;20081;-64
2024/03/19 09:03:03;;;;;;;3.90;2.67;;;14.70;79.90;;;;;;5088617;28;20028;-64
2024/03/19 09:05:28;;;;;;;4.18;2.78;;;14.90;79.40;;;;;;5064566;28;20045;-64
2024/03/19 09:07:54;;;;;;;9.70;3.03;;;15.00;79.10;;;;;;5086797;28;20020;-64
2024/03/19 09:10:20;;;;;;;5.57;2.30;;;15.20;78.80;;;;;;5081214;28;20032;-64
2024/03/19 09:12:46;;;;;;;4.68;2.17;;;15.30;78.60;;;;;;5075726;28;20032;-64
2024/03/19 09:15:12;;;;;;;13.02;2.17;;;15.40;78.30;;;;;;5087105;28;20126;-64
2024/03/19 09:17:39;;;;;;;9.57;3.70;;;15.50;77.50;;;;;;5076277;28;20020;-63
2024/03/19 09:20:06;;;;;;;4.00;2.30;;;15.40;76.90;;;;;;5073662;28;20044;-63
2024/03/19 09:22:32;;;;;;;5.05;2.67;;;15.50;77.10;;;;;;5086742;28;20032;-64
2024/03/19 09:24:59;;;;;;;5.25;3.20;;;15.50;77.00;;;;;;5070988;28;20032;-64
2024/03/19 09:27:25;;;;;;;3.72;2.20;;;15.60;76.80;;;;;;5067451;28;20133;-64
2024/03/19 09:29:51;;;;;;;3.70;1.65;;;15.70;76.30;;;;;;5083501;28;20024;-64
2024/03/19 09:32:16;;;;;;;3.60;1.58;;;15.80;76.20;;;;;;5070794;28;20044;-64
2024/03/19 09:34:43;;;;;;;4.50;2.47;;;15.90;75.80;;;;;;5082970;28;20043;-63
2024/03/19 09:37:09;;;;;;;4.13;1.65;;;16.10;75.60;;;;;;5047472;28;20028;-64
2024/03/19 09:39:35;;;;;;;3.42;1.83;;;16.20;75.50;;;;;;5084187;28;20475;-64
2024/03/19 09:42:07;;;;;;;4.05;1.85;;;16.30;74.90;;;;;;5085309;28;20028;-64
2024/03/19 09:44:33;;;;;;;2.17;1.55;;;16.40;74.50;;;;;;5089179;28;20024;-64
2024/03/19 09:47:00;;;;;;;3.42;1.42;;;16.50;74.50;;;;;;5071710;28;20458;-64
2024/03/19 09:49:34;;;;;;;4.22;2.15;;;16.60;74.30;;;;;;5077359;28;20026;-64
2024/03/19 09:52:04;;;;;;;2.85;1.27;;;16.60;74.10;;;;;;5078042;28;20862;-64
2024/03/19 09:54:30;;;;;;;2.10;1.20;;;16.80;74.00;;;;;;5076389;28;20033;-64
2024/03/19 09:57:00;;;;;;;2.25;1.13;;;17.00;73.60;;;;;;5085316;28;20434;-64
2024/03/19 09:59:27;;;;;;;1.90;1.05;;;17.30;72.80;;;;;;5083821;28;20041;-64
2024/03/19 10:01:57;;;;;;;2.45;1.70;;;17.40;72.30;;;;;;5086092;28;20025;-65
2024/03/19 10:04:24;;;;;;;3.22;1.20;;;17.50;71.70;;;;;;5078206;28;20458;-64
2024/03/19 10:06:50;;;;;;;3.15;1.25;;;17.60;70.50;;;;;;5072002;28;20388;-64
2024/03/19 10:09:17;;;;;;;1.90;1.00;;;17.70;70.60;;;;;;5074535;28;20036;-64
2024/03/19 10:11:45;;;;;;;2.85;1.13;;;17.80;70.60;;;;;;5083409;28;20119;-65
2024/03/19 10:14:13;;;;;;;3.35;1.33;;;17.90;69.90;;;;;;5083479;28;20494;-64
2024/03/19 10:16:40;;;;;;;1.92;0.98;;;18.10;69.90;;;;;;5076971;28;20038;-64
2024/03/19 10:19:06;;;;;;;1.55;1.15;;;18.20;69.70;;;;;;5079606;28;20043;-64
2024/03/19 10:21:32;;;;;;;4.55;1.10;;;18.40;69.40;;;;;;5081409;28;20036;-64
2024/03/19 10:23:58;;;;;;;2.05;0.90;;;18.50;68.90;;;;;;5078642;28;20032;-64
2024/03/19 10:26:23;;;;;;;3.00;1.60;;;18.70;68.60;;;;;;5081970;28;20471;-64
2024/03/19 10:28:49;;;;;;;2.05;0.77;;;18.90;68.50;;;;;;5073959;28;20522;-64
2024/03/19 10:31:16;;;;;;;1.15;0.63;;;19.00;67.30;;;;;;5083178;28;20134;-64
2024/03/19 10:33:45;;;;;;;2.05;1.17;;;19.00;67.00;;;;;;5083210;28;20032;-64
2024/03/19 10:36:23;;;;;;;1.05;0.70;;;19.00;67.00;;;;;;5082758;28;20040;-64
2024/03/19 10:38:50;;;;;;;4.13;1.00;;;18.90;67.00;;;;;;5082256;28;20545;-63
2024/03/19 10:41:18;;;;;;;1.60;0.30;;;18.90;66.60;;;;;;5073338;28;20078;-64
2024/03/19 10:43:45;;;;;;;0.93;0.50;;;18.90;66.30;;;;;;5082527;28;20021;-63
2024/03/19 10:46:12;;;;;;;1.50;0.40;;;18.90;65.70;;;;;;5087882;28;20415;-64
2024/03/19 10:48:38;;;;;;;2.72;1.52;;;18.70;64.50;;;;;;5081904;28;20028;-64
2024/03/19 10:51:04;;;;;;;0.57;0.50;;;18.60;64.00;;;;;;5083730;28;20068;-63
2024/03/19 10:53:33;;;;;;;1.02;0.70;;;18.60;64.60;;;;;;5088577;28;20066;-64
2024/03/19 10:56:02;;;;;;;0.85;0.65;;;18.60;65.20;;;;;;5088749;28;20110;-64
2024/03/19 10:58:28;;;;;;;2.80;1.00;;;18.60;65.20;;;;;;5084099;28;20032;-64
2024/03/19 11:00:56;;;;;;;3.50;1.45;;;18.60;65.50;;;;;;5082116;28;20050;-64
2024/03/19 11:03:21;;;;;;;2.15;1.15;;;18.50;65.90;;;;;;5077649;28;20083;-64
2024/03/19 11:05:50;;;;;;;1.42;0.90;;;18.60;65.90;;;;;;5085640;28;20086;-64
2024/03/19 11:08:15;;;;;;;1.20;0.70;;;18.50;65.90;;;;;;5084432;28;20024;-64
2024/03/19 11:10:42;;;;;;;3.88;1.20;;;18.50;66.00;;;;;;5079965;28;20028;-64
2024/03/19 11:13:11;;;;;;;2.38;1.13;;;18.40;65.70;;;;;;5085288;28;20024;-64
2024/03/19 11:15:39;;;;;;;2.47;0.85;;;18.40;65.80;;;;;;5084466;28;20475;-64
2024/03/19 11:18:16;;;;;;;1.15;0.95;;;18.30;65.40;;;;;;5080935;28;20553;-64
2024/03/19 11:20:51;;;;;;;1.00;0.90;;;18.10;65.60;;;;;;5082891;28;20053;-64
2024/03/19 11:23:26;;;;;;;1.30;0.85;;;18.00;64.90;;;;;;5084683;28;20036;-64
2024/03/19 11:25:54;;;;;;;2.22;1.02;;;17.90;65.10;;;;;;5088511;28;20028;-64
2024/03/19 11:28:29;;;;;;;1.70;1.00;;;17.90;65.20;;;;;;5084461;28;20020;-64
2024/03/19 11:30:55;;;;;;;1.67;0.73;;;18.00;65.30;;;;;;5071207;28;20037;-65
2024/03/19 11:33:22;;;;;;;2.15;1.35;;;18.10;64.90;;;;;;5083430;28;20563;-64
2024/03/19 11:35:48;;;;;;;1.98;1.00;;;18.30;64.00;;;;;;5081693;28;20021;-64
2024/03/19 11:38:17;;;;;;;2.13;1.25;;;18.60;64.40;;;;;;5072440;28;20036;-64
2024/03/19 11:40:43;;;;;;;1.02;0.88;;;18.90;64.00;;;;;;5075775;28;20040;-64
2024/03/19 11:43:12;;;;;;;1.55;1.13;;;19.40;63.60;;;;;;5076108;28;20467;-64
2024/03/19 11:45:40;;;;;;;2.55;1.20;;;19.60;62.90;;;;;;5082288;28;20025;-64
2024/03/19 11:48:06;;;;;;;6.25;1.40;;;19.80;61.80;;;;;;5083370;28;20032;-64
2024/03/19 11:50:31;;;;;;;6.28;1.55;;;19.90;60.90;;;;;;5076720;28;20016;-64
2024/03/19 11:52:58;;;;;;;2.50;0.80;;;20.00;60.60;;;;;;5075159;28;20039;-64
2024/03/19 11:55:24;;;;;;;2.00;1.55;;;20.20;60.80;;;;;;5072476;28;20036;-64
2024/03/19 11:57:50;;;;;;;4.07;1.02;;;20.30;60.50;;;;;;5083234;28;20024;-64
2024/03/19 12:00:17;;;;;;;1.80;1.00;;;20.40;60.50;;;;;;5075109;28;20410;-64
2024/03/19 12:02:43;;;;;;;1.92;0.90;;;20.30;60.40;;;;;;5071130;28;20039;-64
2024/03/19 12:05:14;;;;;;;3.00;1.25;;;20.20;60.70;;;;;;5074163;28;20219;-63
2024/03/19 12:07:45;;;;;;;2.05;0.68;;;20.00;61.30;;;;;;5084238;28;20381;-64
2024/03/19 12:10:25;;;;;;;1.77;1.00;;;19.90;61.70;;;;;;5085660;28;20032;-63
2024/03/19 12:12:52;;;;;;;1.50;0.93;;;19.80;61.90;;;;;;5085990;28;20025;-64
2024/03/19 12:15:20;;;;;;;2.95;1.65;;;19.60;62.00;;;;;;5077038;28;20063;-64
2024/03/19 12:17:46;;;;;;;0.52;0.52;;;19.40;62.70;;;;;;5077888;28;20565;-63
2024/03/19 12:20:13;;;;;;;2.55;1.48;;;19.40;63.10;;;;;;5083713;28;20016;-64
2024/03/19 12:22:39;;;;;;;1.35;0.93;;;19.30;63.10;;;;;;5086937;28;20356;-63
2024/03/19 12:25:12;;;;;;;1.77;1.00;;;19.20;63.10;;;;;;5086810;28;20020;-63
2024/03/19 12:27:39;;;;;;;1.98;1.02;;;19.20;63.20;;;;;;5088004;28;20024;-63
2024/03/19 12:30:12;;;;;;;1.73;0.80;;;19.00;63.50;;;;;;5090858;28;20073;-64
2024/03/19 12:32:47;;;;;;;1.30;0.52;;;19.00;63.40;;;;;;5091757;28;20026;-64
2024/03/19 12:35:16;;;;;;;1.98;1.33;;;19.00;63.50;;;;;;5083344;28;20052;-64
2024/03/19 12:37:43;;;;;;;1.15;1.05;;;18.90;63.20;;;;;;5080384;28;20110;-64
2024/03/19 12:40:12;;;;;;;2.55;0.90;;;18.90;63.20;;;;;;5084206;28;20017;-64
2024/03/19 12:42:38;;;;;;;2.42;0.90;;;18.90;62.70;;;;;;5084450;28;20382;-64